createdAt,value
2018-10-05T00:02:07.852Z,99.90
2018-10-05T00:04:36.133Z,99.90
2018-10-05T00:07:04.416Z,99.90
2018-10-05T00:09:32.713Z,99.90
2018-10-05T00:12:01.003Z,99.90
2018-10-05T00:14:29.617Z,99.90
2018-10-05T00:16:57.879Z,99.90
2018-10-05T00:19:26.157Z,99.90
2018-10-05T00:21:54.470Z,99.90
2018-10-05T00:24:22.680Z,99.90
2018-10-05T00:26:50.961Z,99.90
2018-10-05T00:29:19.199Z,99.90
2018-10-05T00:31:47.432Z,99.90
2018-10-05T00:34:15.695Z,99.90
2018-10-05T00:36:43.956Z,99.90
2018-10-05T00:39:12.836Z,99.90
2018-10-05T00:41:41.143Z,99.90
2018-10-05T00:44:09.652Z,99.90
2018-10-05T00:46:37.951Z,99.90
2018-10-05T00:49:06.246Z,99.90
2018-10-05T00:51:34.591Z,99.90
2018-10-05T00:54:02.905Z,99.90
2018-10-05T00:56:31.179Z,99.90
2018-10-05T00:58:59.499Z,99.90
2018-10-05T01:01:27.764Z,99.90
2018-10-05T01:03:56.070Z,99.90
2018-10-05T01:06:24.767Z,99.90
2018-10-05T01:08:53.383Z,99.90
2018-10-05T01:11:21.659Z,99.90
2018-10-05T01:13:49.923Z,99.90
2018-10-05T01:16:18.197Z,99.90
2018-10-05T01:18:46.686Z,99.90
2018-10-05T01:21:14.976Z,99.90
2018-10-05T01:23:43.233Z,99.90
2018-10-05T01:26:11.712Z,99.90
2018-10-05T01:28:39.935Z,99.90
2018-10-05T01:31:08.580Z,99.90
2018-10-05T01:33:36.898Z,99.90
2018-10-05T01:36:05.157Z,99.90
2018-10-05T01:38:33.465Z,99.90
2018-10-05T01:41:01.785Z,99.90
2018-10-05T01:43:30.057Z,99.90
2018-10-05T01:45:58.352Z,99.90
2018-10-05T01:48:26.636Z,99.90
2018-10-05T01:50:54.921Z,99.90
2018-10-05T01:53:23.186Z,99.90
2018-10-05T01:55:51.460Z,99.90
2018-10-05T01:58:19.787Z,99.90
2018-10-05T02:00:48.490Z,99.90
2018-10-05T02:03:16.781Z,99.90
2018-10-05T02:05:45.080Z,99.90
2018-10-05T02:08:13.370Z,99.90
2018-10-05T02:10:41.672Z,99.90
2018-10-05T02:13:10.011Z,99.90
2018-10-05T02:15:38.701Z,99.90
2018-10-05T02:20:57.708Z,99.90
2018-10-05T02:23:26.027Z,99.90
2018-10-05T02:25:54.372Z,99.90
2018-10-05T02:28:22.692Z,99.90
2018-10-05T02:30:51.356Z,99.90
2018-10-05T02:33:19.906Z,99.90
2018-10-05T02:35:48.191Z,99.90
2018-10-05T02:38:16.531Z,99.90
2018-10-05T02:40:45.119Z,99.90
2018-10-05T02:43:13.520Z,99.90
2018-10-05T02:45:41.808Z,99.90
2018-10-05T02:48:10.405Z,99.90
2018-10-05T02:50:38.707Z,99.90
2018-10-05T02:53:07.402Z,99.90
2018-10-05T02:55:36.034Z,99.90
2018-10-05T02:58:04.357Z,99.90
2018-10-05T03:00:44.011Z,99.90
2018-10-05T03:03:12.313Z,99.90
2018-10-05T03:05:40.609Z,99.90
2018-10-05T03:08:08.923Z,99.90
2018-10-05T03:10:37.227Z,99.90
2018-10-05T03:13:05.584Z,99.90
2018-10-05T03:15:33.877Z,99.90
2018-10-05T03:18:02.173Z,99.90
2018-10-05T03:20:30.499Z,99.90
2018-10-05T03:22:59.130Z,99.90
2018-10-05T03:25:27.426Z,99.90
2018-10-05T03:27:55.743Z,99.90
2018-10-05T03:30:24.046Z,99.90
2018-10-05T03:32:52.348Z,99.90
2018-10-05T03:35:20.632Z,99.90
2018-10-05T03:37:48.935Z,99.90
2018-10-05T03:40:17.227Z,99.90
2018-10-05T03:42:45.521Z,99.90
2018-10-05T03:45:13.831Z,99.90
2018-10-05T03:47:42.424Z,99.90
2018-10-05T03:50:10.790Z,99.90
2018-10-05T03:52:39.404Z,99.90
2018-10-05T03:55:07.679Z,99.90
2018-10-05T03:57:35.949Z,99.90
2018-10-05T04:00:04.451Z,99.90
2018-10-05T04:02:32.701Z,99.90
2018-10-05T04:05:01.040Z,99.90
2018-10-05T04:07:29.335Z,99.90
2018-10-05T04:09:57.743Z,99.90
2018-10-05T04:12:26.164Z,99.90
2018-10-05T04:14:54.851Z,99.90
2018-10-05T04:17:23.192Z,99.90
2018-10-05T04:19:51.439Z,99.90
2018-10-05T04:22:27.701Z,99.90
2018-10-05T04:24:55.933Z,99.90
2018-10-05T04:27:24.533Z,99.90
2018-10-05T04:29:52.815Z,99.90
2018-10-05T04:32:21.963Z,99.90
2018-10-05T04:34:50.229Z,99.90
2018-10-05T04:37:18.582Z,99.90
2018-10-05T04:39:47.314Z,99.90
2018-10-05T04:42:15.658Z,99.90
2018-10-05T04:44:43.953Z,99.90
2018-10-05T04:47:12.243Z,99.90
2018-10-05T04:49:40.541Z,99.90
2018-10-05T04:52:08.835Z,99.90
2018-10-05T04:54:37.139Z,99.90
2018-10-05T04:57:05.445Z,99.90
2018-10-05T04:59:33.734Z,99.90
2018-10-05T05:02:02.242Z,99.90
2018-10-05T05:04:30.575Z,99.90
2018-10-05T05:06:58.859Z,99.90
2018-10-05T05:09:27.173Z,99.90
2018-10-05T05:11:55.513Z,99.90
2018-10-05T05:14:23.853Z,99.90
2018-10-05T05:16:52.140Z,99.90
2018-10-05T05:19:20.468Z,99.90
2018-10-05T05:21:48.804Z,99.90
2018-10-05T05:24:17.179Z,99.90
2018-10-05T05:26:45.547Z,99.90
2018-10-05T05:29:13.881Z,99.90
2018-10-05T05:31:42.357Z,99.90
2018-10-05T05:34:10.707Z,99.90
2018-10-05T05:36:39.068Z,99.90
2018-10-05T05:39:14.081Z,99.90
2018-10-05T05:41:42.727Z,99.90
2018-10-05T05:44:11.275Z,99.90
2018-10-05T05:46:39.570Z,99.90
2018-10-05T05:49:07.816Z,99.90
2018-10-05T05:51:36.047Z,99.90
2018-10-05T05:54:04.398Z,99.90
2018-10-05T05:56:32.675Z,99.90
2018-10-05T05:59:00.929Z,99.90
2018-10-05T06:01:29.188Z,99.90
2018-10-05T06:03:57.500Z,99.90
2018-10-05T06:06:25.776Z,99.90
2018-10-05T06:08:54.447Z,99.90
2018-10-05T06:11:23.083Z,99.90
2018-10-05T06:13:51.363Z,99.90
2018-10-05T06:16:19.983Z,99.90
2018-10-05T06:18:48.508Z,99.90
2018-10-05T06:21:16.796Z,99.90
2018-10-05T06:23:45.116Z,99.90
2018-10-05T06:26:14.132Z,99.90
2018-10-05T06:28:42.467Z,99.90
2018-10-05T06:31:10.810Z,99.90
2018-10-05T06:33:39.024Z,99.90
2018-10-05T06:36:07.687Z,99.90
2018-10-05T06:38:36.229Z,99.90
2018-10-05T06:41:04.924Z,99.90
2018-10-05T06:43:33.247Z,99.90
2018-10-05T06:46:01.556Z,99.90
2018-10-05T06:48:29.837Z,99.90
2018-10-05T06:50:58.129Z,99.90
2018-10-05T06:53:26.501Z,99.90
2018-10-05T06:55:54.813Z,99.90
2018-10-05T06:58:23.180Z,99.90
2018-10-05T07:00:51.468Z,99.90
2018-10-05T07:03:19.756Z,99.90
2018-10-05T07:05:48.469Z,99.90
2018-10-05T07:08:16.720Z,99.90
2018-10-05T07:10:45.012Z,99.90
2018-10-05T07:13:13.552Z,99.90
2018-10-05T07:15:41.911Z,99.90
2018-10-05T07:18:10.200Z,99.90
2018-10-05T07:20:38.492Z,99.90
2018-10-05T07:23:07.054Z,99.90
2018-10-05T07:25:35.695Z,99.90
2018-10-05T07:28:04.032Z,99.90
2018-10-05T07:30:32.369Z,99.90
2018-10-05T07:33:00.704Z,99.90
2018-10-05T07:38:20.857Z,99.90
2018-10-05T07:40:49.146Z,99.90
2018-10-05T07:43:17.471Z,99.90
2018-10-05T07:45:45.812Z,99.90
2018-10-05T07:48:14.141Z,99.90
2018-10-05T07:50:43.149Z,99.90
2018-10-05T07:53:11.413Z,99.90
2018-10-05T07:55:40.154Z,99.90
2018-10-05T07:58:08.469Z,99.90
2018-10-05T08:00:36.823Z,99.90
2018-10-05T08:03:05.137Z,99.90
2018-10-05T08:05:33.441Z,99.90
2018-10-05T08:08:01.796Z,99.90
2018-10-05T08:10:30.093Z,99.90
2018-10-05T08:13:05.165Z,99.90
2018-10-05T08:15:33.474Z,99.90
2018-10-05T08:18:01.831Z,99.90
2018-10-05T08:20:30.197Z,99.90
2018-10-05T08:22:58.500Z,99.90
2018-10-05T08:25:26.827Z,99.90
2018-10-05T08:27:55.484Z,99.90
2018-10-05T08:30:24.154Z,99.90
2018-10-05T08:32:52.511Z,99.90
2018-10-05T08:35:20.872Z,99.90
2018-10-05T08:37:49.483Z,99.90
2018-10-05T08:40:18.288Z,99.90
2018-10-05T08:42:46.641Z,99.90
2018-10-05T08:45:14.953Z,99.90
2018-10-05T08:47:43.607Z,99.90
2018-10-05T08:50:12.076Z,99.90
2018-10-05T08:52:40.543Z,99.90
2018-10-05T08:55:09.845Z,99.90
2018-10-05T08:57:38.268Z,99.90
2018-10-05T09:00:07.334Z,99.90
2018-10-05T09:02:36.063Z,99.90
2018-10-05T09:05:04.413Z,99.90
2018-10-05T09:07:32.731Z,99.90
2018-10-05T09:10:01.019Z,99.90
2018-10-05T09:12:35.756Z,99.90
2018-10-05T09:15:04.037Z,99.90
2018-10-05T09:17:32.371Z,99.90
2018-10-05T09:20:00.616Z,99.90
2018-10-05T09:22:28.899Z,99.90
2018-10-05T09:24:57.164Z,99.90
2018-10-05T09:27:25.474Z,99.90
2018-10-05T09:29:54.025Z,99.90
2018-10-05T09:32:30.577Z,99.90
2018-10-05T09:34:58.876Z,99.90
2018-10-05T09:37:27.629Z,99.90
2018-10-05T09:39:55.932Z,99.90
2018-10-05T09:42:30.414Z,99.90
2018-10-05T09:44:58.848Z,99.90
2018-10-05T09:47:27.196Z,99.90
2018-10-05T09:49:56.252Z,99.90
2018-10-05T09:52:25.319Z,99.90
2018-10-05T09:54:53.782Z,99.90
2018-10-05T09:57:22.134Z,99.90
2018-10-05T09:59:50.552Z,99.90
2018-10-05T10:02:24.295Z,99.90
2018-10-05T10:04:52.704Z,99.90
2018-10-05T10:07:21.081Z,99.90
2018-10-05T10:09:49.408Z,99.90
2018-10-05T10:12:17.874Z,99.90
2018-10-05T10:14:46.233Z,99.90
2018-10-05T10:17:14.493Z,99.90
2018-10-05T10:19:42.779Z,99.90
2018-10-05T10:22:11.515Z,99.90
2018-10-05T10:24:39.850Z,99.90
2018-10-05T10:27:08.184Z,99.90
2018-10-05T10:29:36.483Z,99.90
2018-10-05T10:34:46.949Z,99.90
2018-10-05T10:37:15.898Z,99.90
2018-10-05T10:39:44.582Z,99.90
2018-10-05T10:42:12.955Z,99.90
2018-10-05T10:44:41.307Z,99.90
2018-10-05T10:47:09.674Z,99.90
2018-10-05T10:49:38.562Z,99.90
2018-10-05T10:52:06.999Z,99.90
2018-10-05T10:54:35.344Z,99.90
2018-10-05T10:57:03.760Z,99.90
2018-10-05T10:59:32.105Z,99.90
2018-10-05T11:02:01.112Z,99.90
2018-10-05T11:04:30.298Z,99.90
2018-10-05T11:06:58.561Z,99.90
2018-10-05T11:09:27.279Z,99.90
2018-10-05T11:11:55.612Z,99.90
2018-10-05T11:14:23.987Z,99.90
2018-10-05T11:16:52.431Z,99.90
2018-10-05T11:19:20.813Z,99.90
2018-10-05T11:21:49.211Z,99.90
2018-10-05T11:24:17.859Z,99.90
2018-10-05T11:26:46.195Z,99.90
2018-10-05T11:29:14.527Z,99.90
2018-10-05T11:31:43.337Z,99.90
2018-10-05T11:34:11.697Z,99.90
2018-10-05T11:36:40.318Z,99.90
2018-10-05T11:39:08.670Z,99.90
2018-10-05T11:41:36.974Z,99.90
2018-10-05T11:44:05.595Z,99.90
2018-10-05T11:46:34.458Z,99.90
2018-10-05T11:49:02.776Z,99.90
2018-10-05T11:51:31.380Z,99.90
2018-10-05T11:53:59.677Z,99.90
2018-10-05T11:56:27.974Z,99.90
2018-10-05T11:58:56.297Z,99.90
2018-10-05T12:01:24.709Z,99.90
2018-10-05T12:03:53.555Z,99.90
2018-10-05T12:06:21.886Z,99.90
2018-10-05T12:08:50.527Z,99.90
2018-10-05T12:11:19.086Z,99.90
2018-10-05T12:13:47.625Z,99.90
2018-10-05T12:16:16.319Z,99.90
2018-10-05T12:18:44.588Z,99.90
2018-10-05T12:21:13.369Z,99.90
2018-10-05T12:23:42.212Z,99.90
2018-10-05T12:26:10.791Z,99.90
2018-10-05T12:28:39.105Z,99.90
2018-10-05T12:31:07.833Z,99.90
2018-10-05T12:33:36.168Z,99.80
2018-10-05T12:36:04.578Z,99.10
2018-10-05T12:38:32.922Z,99.80
2018-10-05T12:41:01.288Z,99.90
2018-10-05T12:43:36.636Z,99.50
2018-10-05T12:46:05.264Z,98.70
2018-10-05T12:48:34.023Z,99.50
2018-10-05T12:51:02.497Z,98.70
2018-10-05T12:53:31.149Z,99.20
2018-10-05T12:55:59.654Z,99.30
2018-10-05T12:58:28.370Z,98.80
2018-10-05T13:00:56.816Z,97.80
2018-10-05T13:03:25.324Z,98.00
2018-10-05T13:05:53.736Z,97.70
2018-10-05T13:08:22.301Z,97.00
2018-10-05T13:10:50.622Z,97.40
2018-10-05T13:13:19.252Z,97.70
2018-10-05T13:15:47.874Z,97.80
2018-10-05T13:18:16.487Z,97.20
2018-10-05T13:20:44.827Z,96.90
2018-10-05T13:23:13.160Z,96.20
2018-10-05T13:25:41.467Z,96.20
2018-10-05T13:28:09.774Z,98.00
2018-10-05T13:30:38.079Z,97.00
2018-10-05T13:33:06.392Z,97.40
2018-10-05T13:35:35.024Z,97.20
2018-10-05T13:38:03.362Z,95.90
2018-10-05T13:40:32.400Z,96.60
2018-10-05T13:43:00.753Z,97.50
2018-10-05T13:45:35.680Z,97.20
2018-10-05T13:48:04.268Z,97.10
2018-10-05T13:50:32.634Z,96.30
2018-10-05T13:53:01.457Z,97.00
2018-10-05T13:55:29.999Z,96.40
2018-10-05T13:57:58.334Z,95.00
2018-10-05T14:00:26.656Z,95.90
2018-10-05T14:02:55.037Z,95.20
2018-10-05T14:05:23.687Z,95.90
2018-10-05T14:07:52.066Z,95.30
2018-10-05T14:10:20.560Z,96.40
2018-10-05T14:12:48.803Z,95.70
2018-10-05T14:15:18.276Z,94.70
2018-10-05T14:17:46.867Z,93.90
2018-10-05T14:20:15.182Z,93.20
2018-10-05T14:22:43.588Z,93.10
2018-10-05T14:25:11.956Z,93.40
2018-10-05T14:27:40.334Z,93.20
2018-10-05T14:30:09.067Z,93.60
2018-10-05T14:32:37.400Z,93.00
2018-10-05T14:35:06.039Z,93.10
2018-10-05T14:37:34.428Z,93.30
2018-10-05T14:40:03.168Z,93.00
2018-10-05T14:42:31.758Z,93.30
2018-10-05T14:45:00.071Z,93.60
2018-10-05T14:47:28.396Z,92.90
2018-10-05T14:49:56.731Z,93.40
2018-10-05T14:52:25.974Z,93.20
2018-10-05T14:54:55.463Z,92.50
2018-10-05T14:57:24.204Z,93.00
2018-10-05T14:59:53.323Z,94.10
2018-10-05T15:02:21.719Z,94.60
2018-10-05T15:04:50.447Z,93.40
2018-10-05T15:07:18.764Z,93.60
2018-10-05T15:09:47.460Z,93.20
2018-10-05T15:12:15.778Z,93.20
2018-10-05T15:14:44.720Z,93.60
2018-10-05T15:17:13.073Z,93.40
2018-10-05T15:19:41.332Z,92.80
2018-10-05T15:22:09.681Z,92.60
2018-10-05T15:24:38.034Z,92.70
2018-10-05T15:27:07.003Z,93.10
2018-10-05T15:29:35.381Z,93.20
2018-10-05T15:32:04.597Z,93.00
2018-10-05T15:34:32.905Z,93.40
2018-10-05T15:37:01.220Z,93.80
2018-10-05T15:39:29.848Z,93.70
2018-10-05T15:41:58.732Z,93.70
2018-10-05T15:44:27.095Z,94.90
2018-10-05T15:46:58.169Z,93.70
2018-10-05T15:49:27.446Z,93.50
2018-10-05T15:51:56.091Z,93.00
2018-10-05T15:54:24.421Z,93.70
2018-10-05T15:56:52.928Z,94.40
2018-10-05T15:59:21.322Z,95.00
2018-10-05T16:01:49.966Z,94.30
2018-10-05T16:04:18.378Z,93.90
2018-10-05T16:06:47.744Z,94.50
2018-10-05T16:09:16.183Z,94.80
2018-10-05T16:11:44.553Z,95.40
2018-10-05T16:14:13.357Z,95.20
2018-10-05T16:16:41.875Z,95.50
2018-10-05T16:19:10.633Z,95.80
2018-10-05T16:21:39.075Z,96.30
2018-10-05T16:24:09.347Z,95.90
2018-10-05T16:26:37.740Z,96.40
2018-10-05T16:29:06.188Z,96.60
2018-10-05T16:31:34.533Z,96.70
2018-10-05T16:34:03.383Z,97.10
2018-10-05T16:36:31.803Z,97.50
2018-10-05T16:39:00.111Z,97.30
2018-10-05T16:41:28.471Z,97.90
2018-10-05T16:46:53.251Z,98.90
2018-10-05T16:49:21.887Z,98.80
2018-10-05T16:51:50.234Z,99.10
2018-10-05T16:54:18.607Z,99.80
2018-10-05T16:56:46.927Z,99.90
2018-10-05T16:59:15.259Z,99.90
2018-10-05T17:01:43.912Z,99.90
2018-10-05T17:04:12.618Z,99.90
2018-10-05T17:06:40.978Z,99.90
2018-10-05T17:09:11.525Z,99.90
2018-10-05T17:11:42.248Z,99.90
2018-10-05T17:14:10.592Z,99.90
2018-10-05T17:16:38.932Z,99.90
2018-10-05T17:19:07.532Z,99.90
2018-10-05T17:21:36.374Z,99.90
2018-10-05T17:24:04.746Z,99.90
2018-10-05T17:26:33.107Z,99.90
2018-10-05T17:29:01.818Z,99.90
2018-10-05T17:31:30.123Z,99.90
2018-10-05T17:33:58.387Z,99.90
2018-10-05T17:36:26.689Z,99.90
2018-10-05T17:38:55.034Z,99.90
2018-10-05T17:41:23.372Z,99.90
2018-10-05T17:43:51.756Z,99.90
2018-10-05T17:46:20.378Z,99.90
2018-10-05T17:48:48.740Z,99.90
2018-10-05T17:51:17.127Z,99.90
2018-10-05T17:53:45.451Z,99.90
2018-10-05T17:56:13.805Z,99.90
2018-10-05T17:58:42.117Z,99.90
2018-10-05T18:01:10.447Z,99.90
2018-10-05T18:03:39.704Z,99.90
2018-10-05T18:06:09.771Z,99.90
2018-10-05T18:08:38.443Z,99.90
2018-10-05T18:11:06.785Z,99.90
2018-10-05T18:13:35.111Z,99.90
2018-10-05T18:16:03.511Z,99.90
2018-10-05T18:18:31.827Z,99.90
2018-10-05T18:21:00.158Z,99.90
2018-10-05T18:23:28.501Z,99.90
2018-10-05T18:25:56.858Z,99.90
2018-10-05T18:28:25.585Z,99.90
2018-10-05T18:30:54.224Z,99.90
2018-10-05T18:33:22.535Z,99.90
2018-10-05T18:35:50.893Z,99.90
2018-10-05T18:38:19.563Z,99.90
2018-10-05T18:40:48.636Z,99.90
2018-10-05T18:43:16.996Z,99.90
2018-10-05T18:45:46.200Z,99.90
2018-10-05T18:48:14.807Z,99.90
2018-10-05T18:53:34.317Z,99.90
2018-10-05T18:56:14.042Z,99.90
2018-10-05T18:58:42.675Z,99.90
2018-10-05T19:01:11.304Z,99.90
2018-10-05T19:03:39.663Z,99.90
2018-10-05T19:06:08.030Z,99.90
2018-10-05T19:08:36.390Z,99.90
2018-10-05T19:11:04.709Z,99.90
2018-10-05T19:13:33.394Z,99.90
2018-10-05T19:16:01.744Z,99.90
2018-10-05T19:18:29.990Z,99.90
2018-10-05T19:20:58.372Z,99.90
2018-10-05T19:23:26.900Z,99.90
2018-10-05T19:25:58.088Z,99.90
2018-10-05T19:28:26.363Z,99.90
2018-10-05T19:30:54.672Z,99.90
2018-10-05T19:33:23.338Z,99.90
2018-10-05T19:35:51.880Z,99.90
2018-10-05T19:38:20.232Z,99.90
2018-10-05T19:40:49.532Z,99.90
2018-10-05T19:43:17.916Z,99.90
2018-10-05T19:45:46.559Z,99.90
2018-10-05T19:48:14.890Z,99.90
2018-10-05T19:50:43.253Z,99.90
2018-10-05T19:53:11.716Z,99.90
2018-10-05T19:55:39.858Z,99.90
2018-10-05T19:58:08.192Z,99.90
2018-10-05T20:00:37.579Z,99.90
2018-10-05T20:03:05.879Z,99.90
2018-10-05T20:05:34.194Z,99.90
2018-10-05T20:08:02.480Z,99.90
2018-10-05T20:10:37.902Z,99.90
2018-10-05T20:13:06.805Z,99.90
2018-10-05T20:15:35.115Z,99.90
2018-10-05T20:18:03.566Z,99.90
2018-10-05T20:20:32.407Z,99.90
2018-10-05T20:23:00.749Z,99.90
2018-10-05T20:25:30.284Z,99.90
2018-10-05T20:27:58.686Z,99.90
2018-10-05T20:30:31.838Z,99.90
2018-10-05T20:33:00.169Z,99.90
2018-10-05T20:35:32.971Z,99.90
2018-10-05T20:38:01.280Z,99.90
2018-10-05T20:40:29.922Z,99.90
2018-10-05T20:42:58.235Z,99.90
2018-10-05T20:45:27.087Z,99.90
2018-10-05T20:47:55.411Z,99.90
2018-10-05T20:50:24.684Z,99.90
2018-10-05T20:52:53.769Z,99.90
2018-10-05T20:55:25.263Z,99.90
2018-10-05T20:57:53.621Z,99.90
2018-10-05T21:00:26.107Z,99.90
2018-10-05T21:02:54.484Z,99.90
2018-10-05T21:05:22.894Z,99.90
2018-10-05T21:07:51.323Z,99.90
2018-10-05T21:10:23.157Z,99.90
2018-10-05T21:12:51.544Z,99.90
2018-10-05T21:15:24.844Z,99.90
2018-10-05T21:17:53.377Z,99.90
2018-10-05T21:20:25.992Z,99.90
2018-10-05T21:22:54.540Z,99.90
2018-10-05T21:25:26.213Z,99.90
2018-10-05T21:27:54.658Z,99.90
2018-10-05T21:30:26.449Z,99.90
2018-10-05T21:32:54.884Z,99.90
2018-10-05T21:35:25.821Z,99.90
2018-10-05T21:37:54.538Z,99.90
2018-10-05T21:40:24.872Z,99.90
2018-10-05T21:42:53.145Z,99.90
2018-10-05T21:45:24.780Z,99.90
2018-10-05T21:47:53.350Z,99.90
2018-10-05T21:50:24.446Z,99.90
2018-10-05T21:52:53.152Z,99.90
2018-10-05T21:55:25.353Z,99.90
2018-10-05T21:57:53.750Z,99.90
2018-10-05T22:00:25.996Z,99.90
2018-10-05T22:02:54.584Z,99.90
2018-10-05T22:05:23.110Z,99.90
2018-10-05T22:07:51.505Z,99.90
2018-10-05T22:10:20.212Z,99.90
2018-10-05T22:12:48.828Z,99.90
2018-10-05T22:15:17.127Z,99.90
2018-10-05T22:17:45.430Z,99.90
2018-10-05T22:20:14.044Z,99.90
2018-10-05T22:22:42.318Z,99.90
2018-10-05T22:25:10.633Z,99.90
2018-10-05T22:27:38.961Z,99.90
2018-10-05T22:30:07.283Z,99.90
2018-10-05T22:32:35.591Z,99.90
2018-10-05T22:35:03.914Z,99.90
2018-10-05T22:37:32.243Z,99.90
2018-10-05T22:40:00.956Z,99.90
2018-10-05T22:42:29.321Z,99.90
2018-10-05T22:44:57.676Z,99.90
2018-10-05T22:47:26.014Z,99.90
2018-10-05T22:49:55.108Z,99.90
2018-10-05T22:52:23.445Z,99.90
2018-10-05T22:54:51.764Z,99.90
2018-10-05T22:57:20.076Z,99.90
2018-10-05T22:59:48.972Z,99.90
2018-10-05T23:02:17.325Z,99.90
2018-10-05T23:04:45.638Z,99.90
2018-10-05T23:07:14.022Z,99.90
2018-10-05T23:09:42.628Z,99.90
2018-10-05T23:12:11.076Z,99.90
2018-10-05T23:14:39.366Z,99.90
2018-10-05T23:17:07.717Z,99.90
2018-10-05T23:19:36.417Z,99.90
2018-10-05T23:22:05.077Z,99.90
2018-10-05T23:24:33.477Z,99.90
2018-10-05T23:27:01.784Z,99.90
2018-10-05T23:29:30.135Z,99.90
2018-10-05T23:31:58.467Z,99.90
2018-10-05T23:34:26.773Z,99.90
2018-10-05T23:36:55.374Z,99.90
2018-10-05T23:39:23.676Z,99.90
2018-10-05T23:41:52.029Z,99.90
2018-10-05T23:44:20.332Z,99.90
2018-10-05T23:46:48.634Z,99.90
2018-10-05T23:49:16.949Z,99.90
2018-10-05T23:51:45.305Z,99.90
2018-10-05T23:54:13.595Z,99.90
2018-10-05T23:56:42.155Z,99.90
2018-10-05T23:59:10.470Z,99.90
